Shellbrook, Canada
Current Conditions -  °F | °C
As of 7:00 PM on Tuesday 27 Jan 2015 (Local Time) from CYPA Reporting Station
Light Snow Light Snow  
Wind Chill: 20°   Ceiling: 1000
Heat Index: 28°   Visibility: 12mi
Dew Point: 25°   Wind: 9mph
Humidity: 86%   Direction: 60°ENE
Pressure: 29.95"   Gusts: NA
Location:  53.22°N, 106.4°W
Report Text: CYPA 280100Z 06008KT 12SM -SN OVC010 M02/M04 A2995 RMK SC8 SLP168
Loading
Personal Weather Stations






























Interactive Weather Map New forecast layout! Learn more

10-Day Weather Forecast

Advertisements
Track Severe Weather on mobile